Time;durP1;ratioP1;P1;durP2;ratioP2;P2;SDS_P1;SDS_P2;PMS_P1;PMS_P2;Temp;Humidity;BMP_temperature;BMP_pressure;BME280_temperature;BME280_humidity;BME280_pressure;Samples;Min_cycle;Max_cycle;Signal;HPM_P1;HPM_P2
2022/02/17 00:00:37;;;;;;;1.00;0.60;;;13.40;99.90;;;;;;5078141;28;20500;-71
2022/02/17 00:03:04;;;;;;;1.07;0.70;;;13.40;99.90;;;;;;5078202;28;20462;-71
2022/02/17 00:05:31;;;;;;;1.60;0.80;;;13.50;99.90;;;;;;5078005;28;20844;-72
2022/02/17 00:08:00;;;;;;;1.07;0.70;;;13.50;99.90;;;;;;5078013;28;20454;-72
2022/02/17 00:10:27;;;;;;;1.30;0.90;;;13.50;99.90;;;;;;5078180;28;20800;-71
2022/02/17 00:12:57;;;;;;;0.90;0.60;;;13.50;99.90;;;;;;5077796;28;20458;-71
2022/02/17 00:15:24;;;;;;;1.60;0.77;;;13.40;99.90;;;;;;5077771;28;20563;-71
2022/02/17 00:17:50;;;;;;;1.00;0.60;;;13.30;99.90;;;;;;5078995;28;20938;-71
2022/02/17 00:20:17;;;;;;;1.00;0.60;;;13.20;99.90;;;;;;5080119;28;20585;-70
2022/02/17 00:22:47;;;;;;;1.00;0.70;;;13.20;99.90;;;;;;5077862;28;20462;-70
2022/02/17 00:25:15;;;;;;;1.67;0.70;;;13.30;99.90;;;;;;5077627;28;20458;-70
2022/02/17 00:27:42;;;;;;;1.83;0.60;;;13.30;99.90;;;;;;5077763;28;20462;-70
2022/02/17 00:30:10;;;;;;;1.00;0.60;;;13.30;99.90;;;;;;5077587;28;20489;-70
2022/02/17 00:32:38;;;;;;;1.00;0.70;;;13.40;99.90;;;;;;5077736;28;20450;-71
2022/02/17 00:35:07;;;;;;;1.10;0.60;;;13.40;99.90;;;;;;5078434;28;20520;-71
2022/02/17 00:37:34;;;;;;;0.90;0.50;;;13.30;99.90;;;;;;5077423;28;20468;-71
2022/02/17 00:40:03;;;;;;;1.00;0.70;;;13.30;99.90;;;;;;5077769;28;20458;-71
2022/02/17 00:42:31;;;;;;;3.43;0.70;;;13.30;99.90;;;;;;5077791;28;20474;-71
2022/02/17 00:44:58;;;;;;;1.00;0.70;;;13.30;99.90;;;;;;5076924;28;20457;-71
2022/02/17 00:47:25;;;;;;;1.20;0.70;;;13.30;99.90;;;;;;5077730;28;20465;-71
2022/02/17 00:49:51;;;;;;;1.00;0.60;;;13.30;99.90;;;;;;5077577;28;20458;-71
2022/02/17 00:52:18;;;;;;;0.90;0.60;;;13.30;99.90;;;;;;5077734;28;20516;-71
2022/02/17 00:54:47;;;;;;;1.00;0.60;;;13.10;99.90;;;;;;5077663;28;20549;-71
2022/02/17 00:57:14;;;;;;;1.30;0.60;;;13.00;99.90;;;;;;5078340;28;20543;-71
2022/02/17 00:59:42;;;;;;;0.90;0.50;;;12.90;99.90;;;;;;5077784;28;20462;-72
2022/02/17 01:02:09;;;;;;;1.10;0.60;;;12.90;99.90;;;;;;5076774;28;20475;-72
2022/02/17 01:04:36;;;;;;;1.30;0.80;;;12.90;99.90;;;;;;5076884;28;20462;-71
2022/02/17 01:07:03;;;;;;;1.30;0.77;;;12.70;99.90;;;;;;5080722;28;20457;-72
2022/02/17 01:09:30;;;;;;;4.70;1.00;;;12.50;99.90;;;;;;5079611;28;20481;-71
2022/02/17 01:11:56;;;;;;;3.20;1.50;;;11.00;99.90;;;;;;5077720;28;20827;-71
2022/02/17 01:14:23;;;;;;;3.37;1.13;;;9.70;99.90;;;;;;5077185;28;20465;-70
2022/02/17 01:16:51;;;;;;;6.60;1.23;;;9.10;99.90;;;;;;5076711;28;20935;-71
2022/02/17 01:19:18;;;;;;;3.93;1.67;;;8.90;99.90;;;;;;5077213;28;20450;-71
2022/02/17 01:21:45;;;;;;;6.90;1.73;;;8.80;99.90;;;;;;5076766;28;20489;-71
2022/02/17 01:24:12;;;;;;;2.43;1.07;;;8.70;99.90;;;;;;5077209;28;20454;-71
2022/02/17 01:26:39;;;;;;;1.70;0.90;;;8.70;99.90;;;;;;5077779;28;20458;-71
2022/02/17 01:29:06;;;;;;;3.00;1.37;;;8.70;99.90;;;;;;5077406;28;20555;-71
2022/02/17 01:31:33;;;;;;;3.00;1.57;;;8.60;99.90;;;;;;5077169;28;20923;-72
2022/02/17 01:34:02;;;;;;;4.63;1.40;;;8.60;99.90;;;;;;5076988;28;20462;-71
2022/02/17 01:36:28;;;;;;;1.40;1.20;;;8.60;99.90;;;;;;5076732;28;20458;-70
2022/02/17 01:38:56;;;;;;;2.37;1.10;;;8.50;99.90;;;;;;5076562;28;20521;-71
2022/02/17 01:41:23;;;;;;;2.40;1.20;;;8.40;99.90;;;;;;5075953;28;20482;-71
2022/02/17 01:43:51;;;;;;;2.53;1.27;;;8.30;99.90;;;;;;5076984;28;20454;-70
2022/02/17 01:46:31;;;;;;;5.60;1.23;;;8.30;99.90;;;;;;5077109;28;20458;-71
2022/02/17 01:48:58;;;;;;;4.53;1.10;;;8.30;99.90;;;;;;5077079;28;20443;-71
2022/02/17 01:51:26;;;;;;;3.13;1.97;;;8.30;99.90;;;;;;5077414;28;20466;-71
2022/02/17 01:53:52;;;;;;;2.10;0.90;;;8.30;99.90;;;;;;5078870;28;20468;-72
2022/02/17 01:56:19;;;;;;;2.00;1.10;;;8.30;99.90;;;;;;5076526;28;20472;-72
2022/02/17 01:58:46;;;;;;;4.63;1.10;;;8.30;99.90;;;;;;5076346;28;20462;-72
2022/02/17 02:01:14;;;;;;;2.10;1.00;;;8.40;99.90;;;;;;5076138;28;20489;-72
2022/02/17 02:03:43;;;;;;;3.67;1.30;;;8.40;99.90;;;;;;5076052;28;20462;-71
2022/02/17 02:06:10;;;;;;;3.27;1.53;;;8.40;99.90;;;;;;5075997;28;20455;-70
2022/02/17 02:08:40;;;;;;;3.63;1.10;;;8.50;99.90;;;;;;5075595;28;20457;-70
2022/02/17 02:11:10;;;;;;;4.60;1.17;;;8.40;99.90;;;;;;5075321;28;20446;-70
2022/02/17 02:13:38;;;;;;;6.10;1.40;;;8.50;99.90;;;;;;5075516;28;20787;-70
2022/02/17 02:16:06;;;;;;;8.63;1.37;;;8.50;99.90;;;;;;5074941;28;20454;-70
2022/02/17 02:18:35;;;;;;;7.03;1.33;;;8.50;99.90;;;;;;5075049;28;20497;-70
2022/02/17 02:21:03;;;;;;;4.80;1.57;;;8.60;99.90;;;;;;5075209;28;20454;-70
2022/02/17 02:23:30;;;;;;;4.07;1.20;;;8.60;99.90;;;;;;5075185;28;20489;-70
2022/02/17 02:25:57;;;;;;;3.33;1.10;;;8.80;99.90;;;;;;5074891;28;20447;-70
2022/02/17 02:28:27;;;;;;;3.70;1.57;;;8.80;99.90;;;;;;5075129;28;20477;-70
2022/02/17 02:30:54;;;;;;;4.20;1.20;;;8.90;99.90;;;;;;5075258;28;20882;-70
2022/02/17 02:33:22;;;;;;;3.17;1.37;;;8.90;99.90;;;;;;5074695;28;20468;-70
2022/02/17 02:35:49;;;;;;;3.67;1.40;;;8.90;99.90;;;;;;5074704;28;20922;-70
2022/02/17 02:38:19;;;;;;;4.23;1.23;;;8.90;99.90;;;;;;5075068;28;20545;-69
2022/02/17 02:40:47;;;;;;;4.63;1.53;;;8.90;99.90;;;;;;5075114;28;20724;-69
2022/02/17 02:43:14;;;;;;;8.87;1.97;;;9.00;99.90;;;;;;5074435;28;20474;-68
2022/02/17 02:45:43;;;;;;;5.90;1.60;;;8.90;99.90;;;;;;5074772;28;20907;-69
2022/02/17 02:48:11;;;;;;;5.20;1.90;;;8.90;99.90;;;;;;5075972;28;20504;-69
2022/02/17 02:50:39;;;;;;;4.40;1.67;;;8.90;99.90;;;;;;5078910;28;20470;-70
2022/02/17 02:53:06;;;;;;;3.80;1.50;;;9.00;99.90;;;;;;5078634;28;20461;-68
2022/02/17 02:55:34;;;;;;;5.07;1.67;;;9.10;99.90;;;;;;5075067;28;20743;-69
2022/02/17 02:58:01;;;;;;;3.87;1.60;;;9.10;99.90;;;;;;5075213;28;20485;-69
2022/02/17 03:00:28;;;;;;;8.77;1.77;;;9.10;99.90;;;;;;5074718;28;20785;-69
2022/02/17 03:02:56;;;;;;;2.80;1.63;;;9.20;99.90;;;;;;5074511;28;20481;-68
2022/02/17 03:05:23;;;;;;;4.30;1.60;;;9.30;99.90;;;;;;5074664;28;20552;-69
2022/02/17 03:07:49;;;;;;;5.97;1.63;;;9.30;99.90;;;;;;5074730;28;20458;-69
2022/02/17 03:10:18;;;;;;;4.20;1.57;;;9.40;99.90;;;;;;5074234;28;20458;-69
2022/02/17 03:12:48;;;;;;;8.83;1.80;;;9.50;99.90;;;;;;5074651;28;20465;-69
2022/02/17 03:15:15;;;;;;;4.40;1.23;;;9.50;99.90;;;;;;5074441;28;20458;-68
2022/02/17 03:17:42;;;;;;;7.03;1.90;;;9.50;99.90;;;;;;5074277;28;20465;-68
2022/02/17 03:20:12;;;;;;;5.10;1.60;;;9.60;99.90;;;;;;5074362;28;20462;-68
2022/02/17 03:22:41;;;;;;;7.53;1.30;;;9.60;99.90;;;;;;5074130;28;20474;-68
2022/02/17 03:25:10;;;;;;;6.20;2.30;;;9.60;99.90;;;;;;5074288;28;20457;-69
2022/02/17 03:27:37;;;;;;;4.27;1.40;;;9.70;99.90;;;;;;5074337;28;20499;-69
2022/02/17 03:30:08;;;;;;;3.90;1.40;;;9.70;99.90;;;;;;5077445;28;20621;-69
2022/02/17 03:32:35;;;;;;;6.00;1.67;;;9.80;99.90;;;;;;5078201;28;20890;-69
2022/02/17 03:35:02;;;;;;;5.80;1.87;;;9.80;99.90;;;;;;5078662;28;20794;-69
2022/02/17 03:37:31;;;;;;;7.43;3.20;;;9.90;99.90;;;;;;5078573;28;20498;-69
2022/02/17 03:39:57;;;;;;;5.40;1.50;;;10.00;99.90;;;;;;5078518;28;20465;-69
2022/02/17 03:42:24;;;;;;;5.37;1.80;;;10.10;99.90;;;;;;5078452;28;20478;-69
2022/02/17 03:44:51;;;;;;;4.30;1.40;;;10.10;99.90;;;;;;5078286;28;20450;-69
2022/02/17 03:47:19;;;;;;;6.50;1.40;;;10.10;99.90;;;;;;5078467;28;20469;-69
2022/02/17 03:49:46;;;;;;;4.10;1.60;;;10.10;99.90;;;;;;5078196;28;20561;-69
2022/02/17 03:52:13;;;;;;;4.90;1.57;;;10.10;99.90;;;;;;5079547;28;20477;-70
2022/02/17 03:54:39;;;;;;;4.50;1.20;;;10.10;99.90;;;;;;5079445;28;20467;-69
2022/02/17 03:57:06;;;;;;;6.30;1.83;;;10.20;99.90;;;;;;5077891;28;20453;-69
2022/02/17 03:59:33;;;;;;;4.17;1.23;;;10.10;99.90;;;;;;5078299;28;20454;-69
2022/02/17 04:01:59;;;;;;;4.67;1.57;;;10.10;99.90;;;;;;5078215;28;20797;-69
2022/02/17 04:04:27;;;;;;;3.83;1.20;;;10.10;99.90;;;;;;5078670;28;20458;-69
2022/02/17 04:06:54;;;;;;;3.10;1.27;;;10.10;99.90;;;;;;5078921;28;20947;-69
2022/02/17 04:09:21;;;;;;;4.83;1.80;;;10.10;99.90;;;;;;5078392;28;20458;-69
2022/02/17 04:11:48;;;;;;;9.60;1.37;;;10.10;99.90;;;;;;5077879;28;20461;-69
2022/02/17 04:14:14;;;;;;;9.10;1.50;;;10.10;99.90;;;;;;5078803;28;20454;-69
2022/02/17 04:16:41;;;;;;;6.40;1.80;;;10.10;99.90;;;;;;5078241;28;20472;-69
2022/02/17 04:19:08;;;;;;;6.97;1.73;;;10.10;99.90;;;;;;5078314;28;20464;-69
2022/02/17 04:21:36;;;;;;;8.57;1.40;;;10.10;99.90;;;;;;5077638;28;20469;-68
2022/02/17 04:24:03;;;;;;;4.30;1.47;;;10.10;99.90;;;;;;5078467;28;20454;-68
2022/02/17 04:26:30;;;;;;;5.20;1.70;;;10.20;99.90;;;;;;5078347;28;20476;-69
2022/02/17 04:28:57;;;;;;;6.83;2.10;;;10.20;99.90;;;;;;5077913;28;20478;-68
2022/02/17 04:31:24;;;;;;;4.73;1.60;;;10.20;99.90;;;;;;5077720;28;20469;-70
2022/02/17 04:33:51;;;;;;;8.30;2.03;;;10.20;99.90;;;;;;5077595;28;20461;-71
2022/02/17 04:36:20;;;;;;;3.10;1.23;;;10.30;99.90;;;;;;5077616;28;20519;-71
2022/02/17 04:38:48;;;;;;;2.33;0.80;;;10.10;99.90;;;;;;5077536;28;20768;-71
2022/02/17 04:43:59;;;;;;;2.80;0.87;;;9.00;99.90;;;;;;5077117;28;20769;-71
2022/02/17 04:46:26;;;;;;;3.23;0.77;;;8.60;99.90;;;;;;5077540;28;20450;-70
2022/02/17 04:48:55;;;;;;;1.73;0.70;;;8.30;99.90;;;;;;5077233;28;20490;-70
2022/02/17 04:51:22;;;;;;;2.27;0.80;;;8.00;99.90;;;;;;5077555;28;20462;-71
2022/02/17 04:53:53;;;;;;;1.20;0.70;;;7.90;99.90;;;;;;5077364;28;20465;-71
2022/02/17 04:56:20;;;;;;;3.47;0.70;;;7.80;99.90;;;;;;5077322;28;20534;-71
2022/02/17 04:58:46;;;;;;;4.30;0.87;;;7.80;99.90;;;;;;5078227;28;20507;-70
2022/02/17 05:01:13;;;;;;;1.20;0.80;;;7.80;99.90;;;;;;5080032;28;20458;-71
2022/02/17 05:03:40;;;;;;;1.77;0.70;;;7.90;99.90;;;;;;5080143;28;20504;-70
2022/02/17 05:06:07;;;;;;;2.43;0.80;;;7.90;99.90;;;;;;5079794;28;20454;-71
2022/02/17 05:08:33;;;;;;;1.53;0.90;;;7.90;99.90;;;;;;5080465;28;20789;-71
2022/02/17 05:11:02;;;;;;;1.40;0.80;;;7.90;99.90;;;;;;5079458;28;20477;-70
2022/02/17 05:13:28;;;;;;;3.97;1.20;;;7.90;99.90;;;;;;5079121;28;20505;-71
2022/02/17 05:15:58;;;;;;;3.13;1.13;;;7.90;99.90;;;;;;5077915;28;20461;-71
2022/02/17 05:18:25;;;;;;;2.90;1.00;;;8.00;99.90;;;;;;5077613;28;20462;-71
2022/02/17 05:20:52;;;;;;;2.33;0.90;;;8.00;99.90;;;;;;5077249;28;20923;-71
2022/02/17 05:23:18;;;;;;;3.43;1.20;;;8.10;99.90;;;;;;5077104;28;20520;-72
2022/02/17 05:25:47;;;;;;;4.63;1.67;;;8.10;99.90;;;;;;5076364;28;20473;-73
2022/02/17 05:28:15;;;;;;;3.80;1.50;;;8.20;99.90;;;;;;5076448;28;20458;-71
2022/02/17 05:30:42;;;;;;;3.00;1.73;;;8.20;99.90;;;;;;5076919;28;20627;-71
2022/02/17 05:33:10;;;;;;;4.33;1.20;;;8.20;99.90;;;;;;5076886;28;20454;-71
2022/02/17 05:35:42;;;;;;;5.10;1.77;;;8.20;99.90;;;;;;5076862;28;20461;-72
2022/02/17 05:38:10;;;;;;;4.93;1.50;;;8.20;99.90;;;;;;5076365;28;20435;-72
2022/02/17 05:40:37;;;;;;;2.13;1.37;;;8.20;99.90;;;;;;5076504;28;20770;-72
2022/02/17 05:43:05;;;;;;;2.27;1.10;;;8.20;99.90;;;;;;5076329;28;20993;-71
2022/02/17 05:45:33;;;;;;;5.83;2.33;;;8.10;99.90;;;;;;5076499;28;20454;-71
2022/02/17 05:48:00;;;;;;;5.27;1.43;;;8.10;99.90;;;;;;5076822;28;20903;-72
2022/02/17 05:50:27;;;;;;;7.17;2.20;;;8.10;99.90;;;;;;5076472;28;20473;-72
2022/02/17 05:52:54;;;;;;;6.50;1.87;;;8.10;99.90;;;;;;5076133;28;20535;-71
2022/02/17 05:55:21;;;;;;;4.47;1.80;;;8.10;99.90;;;;;;5076686;28;20457;-71
2022/02/17 05:57:48;;;;;;;7.90;1.73;;;8.10;99.90;;;;;;5076114;28;20805;-71
2022/02/17 06:00:16;;;;;;;6.40;1.70;;;8.10;99.90;;;;;;5075926;28;20458;-71
2022/02/17 06:02:44;;;;;;;8.73;2.00;;;8.20;99.90;;;;;;5076155;28;20470;-70
2022/02/17 06:05:12;;;;;;;6.70;1.83;;;8.20;99.90;;;;;;5076275;28;20463;-71
2022/02/17 06:07:40;;;;;;;14.37;1.83;;;8.30;99.90;;;;;;5076176;28;20458;-71
2022/02/17 06:10:10;;;;;;;4.93;1.83;;;8.30;99.90;;;;;;5078323;28;20465;-72
2022/02/17 06:12:42;;;;;;;5.87;1.93;;;8.30;99.90;;;;;;5078978;28;20449;-71
2022/02/17 06:15:10;;;;;;;7.40;2.00;;;8.40;99.90;;;;;;5078745;28;20910;-72
2022/02/17 06:17:39;;;;;;;8.03;1.80;;;8.60;99.90;;;;;;5081388;28;20535;-72
2022/02/17 06:20:10;;;;;;;4.50;2.00;;;8.70;99.90;;;;;;5081231;28;20458;-72
2022/02/17 06:22:44;;;;;;;12.70;1.90;;;8.80;99.90;;;;;;5080197;28;20783;-72
2022/02/17 06:25:10;;;;;;;7.90;1.60;;;8.90;99.90;;;;;;5080079;28;20449;-70
2022/02/17 06:27:37;;;;;;;9.33;1.97;;;9.00;99.90;;;;;;5077183;28;20462;-70
2022/02/17 06:30:08;;;;;;;6.93;1.70;;;9.20;99.90;;;;;;5075007;28;20482;-69
2022/02/17 06:32:35;;;;;;;9.97;2.50;;;9.30;99.90;;;;;;5075184;28;20461;-69
2022/02/17 06:35:08;;;;;;;7.43;2.03;;;9.40;99.90;;;;;;5075081;28;20462;-69
2022/02/17 06:37:34;;;;;;;6.43;2.00;;;9.40;99.90;;;;;;5076060;28;20783;-70
2022/02/17 06:40:01;;;;;;;4.80;1.70;;;9.40;99.90;;;;;;5075131;28;20465;-69
2022/02/17 06:42:28;;;;;;;6.63;2.27;;;9.40;99.90;;;;;;5074922;28;20484;-68
2022/02/17 06:44:54;;;;;;;9.80;2.37;;;9.40;99.90;;;;;;5075563;28;20473;-70
2022/02/17 06:47:21;;;;;;;3.83;1.50;;;9.40;99.90;;;;;;5075249;28;20462;-70
2022/02/17 06:49:48;;;;;;;4.57;1.70;;;9.40;99.90;;;;;;5075429;28;20787;-69
2022/02/17 06:52:16;;;;;;;8.33;1.90;;;9.40;99.90;;;;;;5075358;28;20926;-69
2022/02/17 06:54:42;;;;;;;6.23;2.17;;;9.40;99.90;;;;;;5076753;28;20511;-70
2022/02/17 06:57:10;;;;;;;7.40;2.53;;;9.30;99.90;;;;;;5075202;28;20533;-69
2022/02/17 06:59:37;;;;;;;8.40;2.10;;;9.30;99.90;;;;;;5074800;28;20556;-69
2022/02/17 07:02:05;;;;;;;3.83;2.00;;;9.30;99.90;;;;;;5074840;28;20458;-69
2022/02/17 07:04:31;;;;;;;5.77;1.70;;;9.30;99.90;;;;;;5073912;28;20813;-69
2022/02/17 07:06:58;;;;;;;7.27;2.10;;;9.40;99.90;;;;;;5074679;28;20946;-69
2022/02/17 07:09:26;;;;;;;6.40;1.93;;;9.40;99.90;;;;;;5075095;28;20837;-69
2022/02/17 07:11:57;;;;;;;9.33;2.13;;;9.40;99.90;;;;;;5074907;28;20465;-69
2022/02/17 07:14:24;;;;;;;9.20;2.27;;;9.50;99.90;;;;;;5074817;28;20469;-69
2022/02/17 07:16:57;;;;;;;6.40;1.50;;;9.50;99.90;;;;;;5074800;28;20527;-70
2022/02/17 07:19:24;;;;;;;3.20;1.60;;;9.50;99.90;;;;;;5075375;28;20454;-70
2022/02/17 07:21:50;;;;;;;9.50;2.27;;;9.60;99.90;;;;;;5075378;28;20473;-70
2022/02/17 07:24:17;;;;;;;11.40;2.90;;;9.60;99.90;;;;;;5075489;28;20513;-70
2022/02/17 07:26:45;;;;;;;10.93;2.70;;;9.60;99.90;;;;;;5074771;28;20458;-70
2022/02/17 07:29:13;;;;;;;10.63;2.07;;;9.60;99.90;;;;;;5075174;28;20482;-68
2022/02/17 07:31:40;;;;;;;6.73;2.20;;;9.60;99.90;;;;;;5075191;28;20512;-69
2022/02/17 07:34:07;;;;;;;12.80;2.30;;;9.60;99.90;;;;;;5075852;28;20771;-69
2022/02/17 07:36:34;;;;;;;5.93;2.00;;;9.60;99.90;;;;;;5075335;28;20535;-69
2022/02/17 07:39:01;;;;;;;7.33;2.23;;;9.60;99.90;;;;;;5076303;28;20478;-70
2022/02/17 07:41:28;;;;;;;9.77;2.10;;;9.60;99.90;;;;;;5075107;28;20462;-70
2022/02/17 07:43:56;;;;;;;6.10;2.50;;;9.70;99.90;;;;;;5075346;28;20496;-69
2022/02/17 07:46:23;;;;;;;9.90;2.73;;;9.70;99.90;;;;;;5076153;28;20458;-70
2022/02/17 07:48:54;;;;;;;9.13;2.60;;;9.70;99.90;;;;;;5077343;28;20450;-69
2022/02/17 07:51:21;;;;;;;7.13;1.73;;;9.80;99.90;;;;;;5077356;28;20447;-70
2022/02/17 07:53:47;;;;;;;8.73;3.23;;;9.80;99.90;;;;;;5076850;28;20446;-70
2022/02/17 07:56:14;;;;;;;7.40;3.00;;;9.90;99.90;;;;;;5077603;28;20458;-69
2022/02/17 07:58:41;;;;;;;11.63;2.10;;;10.00;99.90;;;;;;5076282;28;20469;-69
2022/02/17 08:01:10;;;;;;;8.17;2.53;;;10.00;99.90;;;;;;5075738;28;20552;-69
2022/02/17 08:03:39;;;;;;;3.97;1.80;;;10.00;99.90;;;;;;5076028;28;20482;-68
2022/02/17 08:06:07;;;;;;;11.63;2.30;;;10.00;99.90;;;;;;5075437;28;20553;-70
2022/02/17 08:08:34;;;;;;;11.60;2.20;;;10.00;99.90;;;;;;5075557;28;20767;-70
2022/02/17 08:11:05;;;;;;;5.30;1.70;;;10.00;99.90;;;;;;5075115;28;20465;-70
2022/02/17 08:13:32;;;;;;;15.50;1.87;;;10.00;99.90;;;;;;5075955;28;20450;-69
2022/02/17 08:15:59;;;;;;;8.40;2.33;;;10.00;99.90;;;;;;5077731;28;20450;-69
2022/02/17 08:18:27;;;;;;;7.43;2.03;;;10.00;99.90;;;;;;5078418;28;20462;-69
2022/02/17 08:20:54;;;;;;;3.87;1.77;;;10.00;99.90;;;;;;5077676;28;20821;-68
2022/02/17 08:23:21;;;;;;;6.67;1.97;;;10.00;99.90;;;;;;5078111;28;20554;-68
2022/02/17 08:25:48;;;;;;;7.60;1.80;;;10.00;99.90;;;;;;5077647;28;20910;-68
2022/02/17 08:28:15;;;;;;;4.53;1.90;;;10.00;99.90;;;;;;5078334;28;20450;-69
2022/02/17 08:30:42;;;;;;;7.33;2.23;;;10.00;99.90;;;;;;5078841;28;20450;-70
2022/02/17 08:33:08;;;;;;;5.23;1.93;;;10.00;99.90;;;;;;5078321;28;20914;-69
2022/02/17 08:35:36;;;;;;;13.53;2.17;;;10.00;99.90;;;;;;5078147;28;20453;-69
2022/02/17 08:38:03;;;;;;;10.60;2.57;;;10.00;99.90;;;;;;5078302;28;20454;-69
2022/02/17 08:40:30;;;;;;;11.67;1.83;;;10.00;99.90;;;;;;5077867;28;20525;-71
2022/02/17 08:43:08;;;;;;;2.90;1.77;;;10.00;99.90;;;;;;5077967;28;20489;-69
2022/02/17 08:45:35;;;;;;;7.43;1.93;;;10.00;99.90;;;;;;5078340;28;20488;-68
2022/02/17 08:48:02;;;;;;;5.77;2.00;;;10.00;99.90;;;;;;5078068;28;20588;-69
2022/02/17 08:50:29;;;;;;;4.57;1.63;;;10.00;99.90;;;;;;5077863;28;20462;-69
2022/02/17 08:52:57;;;;;;;5.20;1.53;;;10.00;99.90;;;;;;5078407;28;20515;-71
2022/02/17 08:55:23;;;;;;;7.30;1.47;;;10.00;99.90;;;;;;5077999;28;20454;-69
2022/02/17 08:57:51;;;;;;;9.30;2.00;;;10.00;99.90;;;;;;5078033;28;20903;-70
2022/02/17 09:00:18;;;;;;;4.37;1.60;;;10.10;99.90;;;;;;5077768;28;20454;-70
2022/02/17 09:02:45;;;;;;;4.57;2.30;;;10.00;99.90;;;;;;5077466;28;20466;-72
2022/02/17 09:05:12;;;;;;;7.53;1.80;;;10.00;99.90;;;;;;5076573;28;20470;-68
2022/02/17 09:07:39;;;;;;;9.33;2.13;;;10.00;99.90;;;;;;5077221;28;20485;-70
2022/02/17 09:10:09;;;;;;;6.30;2.10;;;10.00;99.90;;;;;;5077202;28;20473;-69
2022/02/17 09:12:38;;;;;;;7.20;1.80;;;10.10;99.90;;;;;;5077184;28;20875;-70
2022/02/17 09:15:06;;;;;;;4.67;1.30;;;10.10;99.90;;;;;;5077169;28;20458;-70
2022/02/17 09:17:33;;;;;;;9.80;1.90;;;10.10;99.90;;;;;;5077701;28;20458;-69
2022/02/17 09:20:00;;;;;;;12.17;2.27;;;10.00;99.90;;;;;;5077499;28;20458;-69
2022/02/17 09:22:26;;;;;;;5.07;1.50;;;10.00;99.90;;;;;;5076981;28;20943;-69
2022/02/17 09:24:53;;;;;;;6.00;1.50;;;9.90;99.90;;;;;;5076874;28;20478;-69
2022/02/17 09:27:21;;;;;;;4.23;1.50;;;9.90;99.90;;;;;;5076281;28;20476;-72
2022/02/17 09:29:48;;;;;;;11.50;2.77;;;9.90;99.90;;;;;;5077560;28;20474;-72
2022/02/17 09:32:14;;;;;;;6.37;1.70;;;9.80;99.90;;;;;;5077332;28;20458;-73
2022/02/17 09:34:42;;;;;;;3.80;1.30;;;9.80;99.90;;;;;;5076805;28;20783;-71
2022/02/17 09:37:08;;;;;;;4.80;1.47;;;9.80;99.90;;;;;;5076641;28;20454;-72
2022/02/17 09:39:36;;;;;;;5.37;2.03;;;9.80;99.90;;;;;;5076773;28;20465;-71
2022/02/17 09:42:05;;;;;;;4.43;1.60;;;9.80;99.90;;;;;;5076727;28;20454;-71
2022/02/17 09:44:34;;;;;;;3.97;1.43;;;9.80;99.90;;;;;;5076588;28;20592;-70
2022/02/17 09:47:01;;;;;;;4.03;1.30;;;9.70;99.90;;;;;;5076678;28;20454;-69
2022/02/17 09:49:30;;;;;;;6.30;1.47;;;9.70;99.90;;;;;;5076493;28;20466;-70
2022/02/17 09:51:57;;;;;;;4.57;1.30;;;9.50;99.90;;;;;;5077561;28;20529;-69
2022/02/17 09:54:29;;;;;;;5.60;1.40;;;9.40;99.90;;;;;;5078744;28;20465;-70
2022/02/17 09:56:58;;;;;;;4.73;1.40;;;9.40;99.90;;;;;;5081341;28;20438;-70
2022/02/17 09:59:24;;;;;;;3.90;1.50;;;9.20;99.90;;;;;;5081905;28;20458;-70
2022/02/17 10:01:57;;;;;;;3.40;1.20;;;9.00;99.90;;;;;;5079069;28;20541;-70
2022/02/17 10:04:25;;;;;;;6.43;1.70;;;8.70;99.90;;;;;;5076684;28;20486;-69
2022/02/17 10:06:55;;;;;;;7.73;1.60;;;8.50;99.90;;;;;;5075988;28;20493;-70
2022/02/17 10:09:23;;;;;;;9.93;2.00;;;8.40;99.90;;;;;;5076266;28;20458;-70
2022/02/17 10:11:51;;;;;;;5.17;1.77;;;8.50;99.90;;;;;;5076050;28;20794;-70
2022/02/17 10:14:20;;;;;;;9.33;1.40;;;8.60;99.90;;;;;;5075467;28;20950;-69
2022/02/17 10:17:03;;;;;;;8.33;1.20;;;8.70;99.90;;;;;;5075653;28;21061;-69
2022/02/17 10:19:35;;;;;;;5.50;1.47;;;8.70;99.90;;;;;;5075821;28;20529;-69
2022/02/17 10:22:04;;;;;;;3.20;1.23;;;8.70;99.90;;;;;;5075838;28;20442;-69
2022/02/17 10:24:33;;;;;;;4.30;1.70;;;8.80;99.90;;;;;;5075569;28;20496;-70
2022/02/17 10:27:01;;;;;;;2.87;1.00;;;8.90;99.90;;;;;;5075537;28;20469;-69
2022/02/17 10:29:28;;;;;;;5.07;1.53;;;9.00;99.90;;;;;;5075322;28;20486;-69
2022/02/17 10:32:06;;;;;;;4.27;1.30;;;9.00;99.90;;;;;;5075194;28;20481;-68
2022/02/17 10:34:33;;;;;;;5.40;1.33;;;9.10;99.90;;;;;;5075077;28;20438;-69
2022/02/17 10:37:00;;;;;;;3.90;1.30;;;9.10;99.90;;;;;;5074903;28;20454;-71
2022/02/17 10:39:27;;;;;;;4.43;1.57;;;9.20;99.90;;;;;;5075633;28;20469;-70
2022/02/17 10:41:57;;;;;;;3.27;1.13;;;9.20;99.90;;;;;;5075531;28;20454;-69
2022/02/17 10:44:25;;;;;;;6.00;1.20;;;9.20;99.90;;;;;;5075542;28;20622;-70
2022/02/17 10:46:52;;;;;;;6.37;1.60;;;9.20;99.90;;;;;;5075482;28;20514;-70
2022/02/17 10:49:22;;;;;;;5.13;1.53;;;9.20;99.90;;;;;;5076923;28;20454;-70
2022/02/17 10:51:50;;;;;;;9.40;2.10;;;9.20;99.90;;;;;;5075666;28;20755;-69
2022/02/17 10:54:20;;;;;;;6.10;1.43;;;9.20;99.90;;;;;;5075585;28;20549;-69
2022/02/17 10:56:51;;;;;;;2.97;1.23;;;9.10;99.90;;;;;;5075869;28;20505;-70
2022/02/17 11:02:01;;;;;;;3.40;1.50;;;9.00;99.90;;;;;;5076967;28;20469;-69
2022/02/17 11:04:29;;;;;;;6.23;1.63;;;8.90;99.90;;;;;;5075790;28;20530;-70
2022/02/17 11:06:57;;;;;;;3.03;1.63;;;8.90;99.90;;;;;;5075805;28;20489;-70
2022/02/17 11:09:25;;;;;;;2.80;1.23;;;8.90;99.90;;;;;;5076403;28;20903;-71
2022/02/17 11:11:54;;;;;;;6.97;1.33;;;9.00;99.90;;;;;;5076296;28;20458;-70
2022/02/17 11:14:38;;;;;;;8.97;1.90;;;9.10;99.90;;;;;;5075458;28;20458;-69
2022/02/17 11:17:06;;;;;;;2.50;1.47;;;9.20;99.90;;;;;;5074923;28;20523;-70
2022/02/17 11:19:36;;;;;;;4.87;1.47;;;9.20;99.90;;;;;;5074746;28;20458;-70
2022/02/17 11:22:03;;;;;;;3.33;1.23;;;9.10;99.90;;;;;;5074792;28;20515;-69
2022/02/17 11:24:30;;;;;;;4.33;1.10;;;9.10;99.90;;;;;;5074819;28;20478;-70
2022/02/17 11:27:07;;;;;;;5.03;1.67;;;9.00;99.90;;;;;;5074647;28;20458;-70
2022/02/17 11:29:36;;;;;;;3.93;1.30;;;8.90;99.90;;;;;;5074537;28;20513;-69
2022/02/17 11:32:06;;;;;;;4.57;1.37;;;8.90;99.90;;;;;;5074621;28;20512;-70
2022/02/17 11:34:38;;;;;;;7.93;1.30;;;8.90;99.90;;;;;;5074951;28;20458;-70
2022/02/17 11:37:48;;;;;;;2.90;1.33;;;9.00;99.90;;;;;;5074707;28;20472;-69
2022/02/17 11:40:18;;;;;;;2.83;1.30;;;9.10;99.90;;;;;;5074476;28;20446;-69
2022/02/17 11:42:46;;;;;;;2.10;1.00;;;9.10;99.90;;;;;;5074850;28;20454;-69
2022/02/17 11:45:17;;;;;;;6.50;1.10;;;9.10;99.90;;;;;;5074586;28;20478;-69
2022/02/17 11:48:01;;;;;;;5.63;1.23;;;9.00;99.90;;;;;;5074531;28;20452;-69
2022/02/17 11:50:41;;;;;;;5.53;1.40;;;8.90;99.90;;;;;;5076756;28;20462;-69
2022/02/17 11:53:31;;;;;;;4.43;1.43;;;8.90;99.90;;;;;;5078715;28;20449;-70
2022/02/17 11:56:34;;;;;;;3.00;1.27;;;8.80;99.90;;;;;;5078555;28;20438;-69
2022/02/17 11:59:01;;;;;;;3.00;1.43;;;8.80;99.90;;;;;;5076586;28;20526;-70
2022/02/17 12:01:38;;;;;;;4.73;1.23;;;8.90;99.90;;;;;;5078008;28;20977;-69
2022/02/17 12:04:09;;;;;;;2.97;1.40;;;8.90;99.90;;;;;;5078038;28;20531;-70
2022/02/17 12:06:41;;;;;;;3.70;2.13;;;8.90;99.90;;;;;;5078560;28;20449;-70
2022/02/17 12:09:09;;;;;;;2.60;1.13;;;9.00;99.90;;;;;;5078001;28;20507;-70
2022/02/17 12:11:38;;;;;;;2.90;1.60;;;9.00;99.90;;;;;;5081765;28;20462;-72
2022/02/17 12:14:05;;;;;;;3.17;1.30;;;9.00;99.90;;;;;;5080049;28;20519;-71
2022/02/17 12:16:37;;;;;;;2.33;1.00;;;8.90;99.90;;;;;;5079215;28;20458;-72
2022/02/17 12:19:18;;;;;;;2.17;0.90;;;8.90;99.90;;;;;;5078708;28;20912;-70
2022/02/17 12:21:48;;;;;;;3.10;1.10;;;8.80;99.90;;;;;;5078075;28;20442;-72
2022/02/17 12:24:16;;;;;;;2.23;1.43;;;8.90;99.90;;;;;;5077719;28;20472;-72
2022/02/17 12:26:50;;;;;;;5.40;1.30;;;8.90;99.90;;;;;;5077902;28;20811;-72
2022/02/17 12:29:22;;;;;;;3.97;1.37;;;8.90;99.90;;;;;;5079519;28;20477;-72
2022/02/17 12:31:49;;;;;;;2.60;1.20;;;8.80;99.90;;;;;;5077838;28;20466;-74
2022/02/17 12:34:16;;;;;;;6.40;1.00;;;8.80;99.90;;;;;;5077479;28;20458;-72
2022/02/17 12:36:43;;;;;;;8.60;1.40;;;8.70;99.90;;;;;;5077409;28;20454;-69
2022/02/17 12:39:12;;;;;;;3.93;1.27;;;8.60;99.90;;;;;;5077189;28;20462;-69
2022/02/17 12:41:39;;;;;;;2.90;1.20;;;8.50;99.90;;;;;;5077754;28;20465;-68
2022/02/17 12:44:07;;;;;;;4.63;1.40;;;8.30;99.90;;;;;;5077812;28;20454;-68
2022/02/17 12:46:33;;;;;;;3.23;1.07;;;8.30;99.90;;;;;;5078514;28;20760;-69
2022/02/17 12:49:07;;;;;;;2.43;1.20;;;8.30;99.90;;;;;;5079109;28;20450;-69
2022/02/17 12:51:35;;;;;;;3.33;1.10;;;8.20;99.90;;;;;;5081276;28;20527;-68
2022/02/17 12:54:02;;;;;;;3.50;1.07;;;8.10;99.90;;;;;;5079965;28;20938;-69
2022/02/17 12:56:32;;;;;;;1.97;1.10;;;7.90;99.90;;;;;;5077480;28;20490;-69
2022/02/17 12:59:03;;;;;;;2.87;0.90;;;7.60;99.90;;;;;;5077492;28;20450;-69
2022/02/17 13:01:32;;;;;;;1.53;0.77;;;7.40;99.90;;;;;;5077307;28;20458;-70
2022/02/17 13:03:59;;;;;;;1.57;1.27;;;7.20;99.90;;;;;;5077320;28;20450;-69